sensor_id;sensor_type;location;lat;lon;timestamp;temperature;humidity
1379;DHT22;683;48.738;9.226;2023-05-10T00:01:27;12.80;99.90
1379;DHT22;683;48.738;9.226;2023-05-10T00:03:54;12.90;99.90
1379;DHT22;683;48.738;9.226;2023-05-10T00:06:22;12.80;99.90
1379;DHT22;683;48.738;9.226;2023-05-10T00:08:49;12.80;99.90
1379;DHT22;683;48.738;9.226;2023-05-10T00:11:17;12.80;99.90
1379;DHT22;683;48.738;9.226;2023-05-10T00:13:45;12.90;99.90
1379;DHT22;683;48.738;9.226;2023-05-10T00:16:14;12.90;99.90
1379;DHT22;683;48.738;9.226;2023-05-10T00:18:42;12.90;99.90
1379;DHT22;683;48.738;9.226;2023-05-10T00:21:10;12.80;99.90
1379;DHT22;683;48.738;9.226;2023-05-10T00:23:38;12.80;99.90
1379;DHT22;683;48.738;9.226;2023-05-10T00:26:06;12.70;99.90
1379;DHT22;683;48.738;9.226;2023-05-10T00:28:33;12.70;99.90
1379;DHT22;683;48.738;9.226;2023-05-10T00:31:02;12.70;99.90
1379;DHT22;683;48.738;9.226;2023-05-10T00:33:31;12.70;99.90
1379;DHT22;683;48.738;9.226;2023-05-10T00:35:59;12.60;99.90
1379;DHT22;683;48.738;9.226;2023-05-10T00:38:27;12.60;99.90
1379;DHT22;683;48.738;9.226;2023-05-10T00:40:54;12.60;99.90
1379;DHT22;683;48.738;9.226;2023-05-10T00:43:28;12.50;99.90
1379;DHT22;683;48.738;9.226;2023-05-10T00:45:56;12.40;99.90
1379;DHT22;683;48.738;9.226;2023-05-10T00:48:24;12.40;99.90
1379;DHT22;683;48.738;9.226;2023-05-10T00:50:53;12.40;99.90
1379;DHT22;683;48.738;9.226;2023-05-10T00:53:21;12.40;99.90
1379;DHT22;683;48.738;9.226;2023-05-10T00:55:48;12.30;99.90
1379;DHT22;683;48.738;9.226;2023-05-10T00:58:17;12.20;99.90
1379;DHT22;683;48.738;9.226;2023-05-10T01:00:46;12.20;99.90
1379;DHT22;683;48.738;9.226;2023-05-10T01:03:14;12.20;99.90
1379;DHT22;683;48.738;9.226;2023-05-10T01:05:43;12.20;99.90
1379;DHT22;683;48.738;9.226;2023-05-10T01:08:12;12.20;99.90
1379;DHT22;683;48.738;9.226;2023-05-10T01:10:40;12.10;99.90
1379;DHT22;683;48.738;9.226;2023-05-10T01:13:08;12.10;99.90
1379;DHT22;683;48.738;9.226;2023-05-10T01:15:36;12.10;99.90
1379;DHT22;683;48.738;9.226;2023-05-10T01:18:05;12.00;99.90
1379;DHT22;683;48.738;9.226;2023-05-10T01:20:41;12.00;99.90
1379;DHT22;683;48.738;9.226;2023-05-10T01:23:35;12.00;99.90
1379;DHT22;683;48.738;9.226;2023-05-10T01:26:38;12.00;99.90
1379;DHT22;683;48.738;9.226;2023-05-10T01:29:24;12.00;99.90
1379;DHT22;683;48.738;9.226;2023-05-10T01:32:14;12.00;99.90
1379;DHT22;683;48.738;9.226;2023-05-10T01:34:48;12.00;99.90
1379;DHT22;683;48.738;9.226;2023-05-10T01:37:24;12.00;99.90
1379;DHT22;683;48.738;9.226;2023-05-10T01:40:00;11.90;99.90
1379;DHT22;683;48.738;9.226;2023-05-10T01:42:36;11.90;99.90
1379;DHT22;683;48.738;9.226;2023-05-10T01:45:11;11.90;99.90
1379;DHT22;683;48.738;9.226;2023-05-10T01:47:44;11.90;99.90
1379;DHT22;683;48.738;9.226;2023-05-10T01:50:17;11.90;99.90
1379;DHT22;683;48.738;9.226;2023-05-10T01:52:50;11.90;99.90
1379;DHT22;683;48.738;9.226;2023-05-10T01:55:20;11.90;99.90
1379;DHT22;683;48.738;9.226;2023-05-10T01:57:52;11.90;99.90
1379;DHT22;683;48.738;9.226;2023-05-10T02:00:24;11.90;99.90
1379;DHT22;683;48.738;9.226;2023-05-10T02:02:55;11.90;99.90
1379;DHT22;683;48.738;9.226;2023-05-10T02:05:24;11.80;99.90
1379;DHT22;683;48.738;9.226;2023-05-10T02:07:53;11.80;99.90
1379;DHT22;683;48.738;9.226;2023-05-10T02:10:21;11.80;99.90
1379;DHT22;683;48.738;9.226;2023-05-10T02:12:50;11.80;99.90
1379;DHT22;683;48.738;9.226;2023-05-10T02:15:20;11.70;99.90
1379;DHT22;683;48.738;9.226;2023-05-10T02:17:49;11.70;99.90
1379;DHT22;683;48.738;9.226;2023-05-10T02:20:19;11.70;99.90
1379;DHT22;683;48.738;9.226;2023-05-10T02:22:49;11.70;99.90
1379;DHT22;683;48.738;9.226;2023-05-10T02:25:19;11.70;99.90
1379;DHT22;683;48.738;9.226;2023-05-10T02:27:49;11.60;99.90
1379;DHT22;683;48.738;9.226;2023-05-10T02:30:18;11.70;99.90
1379;DHT22;683;48.738;9.226;2023-05-10T02:32:46;11.70;99.90
1379;DHT22;683;48.738;9.226;2023-05-10T02:35:15;11.70;99.90
1379;DHT22;683;48.738;9.226;2023-05-10T02:37:45;11.60;99.90
1379;DHT22;683;48.738;9.226;2023-05-10T02:40:15;11.60;99.90
1379;DHT22;683;48.738;9.226;2023-05-10T02:42:47;11.60;99.90
1379;DHT22;683;48.738;9.226;2023-05-10T02:45:20;11.60;99.90
1379;DHT22;683;48.738;9.226;2023-05-10T02:47:49;11.60;99.90
1379;DHT22;683;48.738;9.226;2023-05-10T02:50:16;11.60;99.90
1379;DHT22;683;48.738;9.226;2023-05-10T02:52:49;11.70;99.90
1379;DHT22;683;48.738;9.226;2023-05-10T02:55:22;11.70;99.90
1379;DHT22;683;48.738;9.226;2023-05-10T02:57:56;11.70;99.90
1379;DHT22;683;48.738;9.226;2023-05-10T03:00:24;11.70;99.90
1379;DHT22;683;48.738;9.226;2023-05-10T03:02:53;11.70;99.90
1379;DHT22;683;48.738;9.226;2023-05-10T03:05:21;11.70;99.90
1379;DHT22;683;48.738;9.226;2023-05-10T03:07:50;11.70;99.90
1379;DHT22;683;48.738;9.226;2023-05-10T03:10:18;11.70;99.90
1379;DHT22;683;48.738;9.226;2023-05-10T03:13:01;11.70;99.90
1379;DHT22;683;48.738;9.226;2023-05-10T03:15:37;11.70;99.90
1379;DHT22;683;48.738;9.226;2023-05-10T03:18:12;11.70;99.90
1379;DHT22;683;48.738;9.226;2023-05-10T03:20:43;11.70;99.90
1379;DHT22;683;48.738;9.226;2023-05-10T03:23:21;11.70;99.90
1379;DHT22;683;48.738;9.226;2023-05-10T03:25:50;11.70;99.90
1379;DHT22;683;48.738;9.226;2023-05-10T03:28:19;11.80;99.90
1379;DHT22;683;48.738;9.226;2023-05-10T03:30:47;11.80;99.90
1379;DHT22;683;48.738;9.226;2023-05-10T03:33:16;11.80;99.90
1379;DHT22;683;48.738;9.226;2023-05-10T03:35:46;11.80;99.90
1379;DHT22;683;48.738;9.226;2023-05-10T03:38:17;11.80;99.90
1379;DHT22;683;48.738;9.226;2023-05-10T03:40:44;11.80;99.90
1379;DHT22;683;48.738;9.226;2023-05-10T03:43:12;11.80;99.90
1379;DHT22;683;48.738;9.226;2023-05-10T03:45:39;11.70;99.90
1379;DHT22;683;48.738;9.226;2023-05-10T03:48:07;11.70;99.90
1379;DHT22;683;48.738;9.226;2023-05-10T03:50:35;11.80;99.90
1379;DHT22;683;48.738;9.226;2023-05-10T03:53:02;11.70;99.90
1379;DHT22;683;48.738;9.226;2023-05-10T03:55:32;11.80;99.90
1379;DHT22;683;48.738;9.226;2023-05-10T03:58:02;11.70;99.90
1379;DHT22;683;48.738;9.226;2023-05-10T04:00:30;11.70;99.90
1379;DHT22;683;48.738;9.226;2023-05-10T04:02:59;11.70;99.90
1379;DHT22;683;48.738;9.226;2023-05-10T04:05:27;11.80;99.90
1379;DHT22;683;48.738;9.226;2023-05-10T04:07:55;11.80;99.90
1379;DHT22;683;48.738;9.226;2023-05-10T04:10:22;11.80;99.90
1379;DHT22;683;48.738;9.226;2023-05-10T04:12:52;11.80;99.90
1379;DHT22;683;48.738;9.226;2023-05-10T04:15:19;11.70;99.90
1379;DHT22;683;48.738;9.226;2023-05-10T04:17:47;11.70;99.90
1379;DHT22;683;48.738;9.226;2023-05-10T04:20:15;11.70;99.90
1379;DHT22;683;48.738;9.226;2023-05-10T04:22:42;11.70;99.90
1379;DHT22;683;48.738;9.226;2023-05-10T04:25:10;11.70;99.90
1379;DHT22;683;48.738;9.226;2023-05-10T04:27:38;11.70;99.90
1379;DHT22;683;48.738;9.226;2023-05-10T04:30:08;11.60;99.90
1379;DHT22;683;48.738;9.226;2023-05-10T04:32:36;11.60;99.90
1379;DHT22;683;48.738;9.226;2023-05-10T04:35:04;11.60;99.90
1379;DHT22;683;48.738;9.226;2023-05-10T04:37:32;11.60;99.90
1379;DHT22;683;48.738;9.226;2023-05-10T04:40:00;11.60;99.90
1379;DHT22;683;48.738;9.226;2023-05-10T04:42:30;11.70;99.90
1379;DHT22;683;48.738;9.226;2023-05-10T04:44:57;11.60;99.90
1379;DHT22;683;48.738;9.226;2023-05-10T04:47:26;11.70;99.90
1379;DHT22;683;48.738;9.226;2023-05-10T04:49:54;11.70;99.90
1379;DHT22;683;48.738;9.226;2023-05-10T04:52:21;11.70;99.90
1379;DHT22;683;48.738;9.226;2023-05-10T04:54:49;11.70;99.90
1379;DHT22;683;48.738;9.226;2023-05-10T04:57:17;11.70;99.90
1379;DHT22;683;48.738;9.226;2023-05-10T04:59:45;11.70;99.90
1379;DHT22;683;48.738;9.226;2023-05-10T05:02:12;11.70;99.90
1379;DHT22;683;48.738;9.226;2023-05-10T05:04:41;11.80;99.90
1379;DHT22;683;48.738;9.226;2023-05-10T05:07:09;11.80;99.90
1379;DHT22;683;48.738;9.226;2023-05-10T05:09:37;11.80;99.90
1379;DHT22;683;48.738;9.226;2023-05-10T05:12:05;11.90;99.90
1379;DHT22;683;48.738;9.226;2023-05-10T05:14:34;11.90;99.90
1379;DHT22;683;48.738;9.226;2023-05-10T05:17:02;12.00;99.90
1379;DHT22;683;48.738;9.226;2023-05-10T05:19:31;12.00;99.90
1379;DHT22;683;48.738;9.226;2023-05-10T05:22:00;12.20;99.90
1379;DHT22;683;48.738;9.226;2023-05-10T05:24:28;12.30;99.90
1379;DHT22;683;48.738;9.226;2023-05-10T05:26:55;12.30;99.90
1379;DHT22;683;48.738;9.226;2023-05-10T05:29:23;12.30;99.90
1379;DHT22;683;48.738;9.226;2023-05-10T05:31:51;12.40;99.90
1379;DHT22;683;48.738;9.226;2023-05-10T05:34:18;12.40;99.90
1379;DHT22;683;48.738;9.226;2023-05-10T05:36:46;12.50;99.90
1379;DHT22;683;48.738;9.226;2023-05-10T05:39:15;12.60;99.90
1379;DHT22;683;48.738;9.226;2023-05-10T05:41:43;12.70;99.90
1379;DHT22;683;48.738;9.226;2023-05-10T05:44:12;12.70;99.90
1379;DHT22;683;48.738;9.226;2023-05-10T05:46:39;12.80;99.90
1379;DHT22;683;48.738;9.226;2023-05-10T05:49:07;12.80;99.90
1379;DHT22;683;48.738;9.226;2023-05-10T05:51:35;12.90;99.90
1379;DHT22;683;48.738;9.226;2023-05-10T05:54:02;12.90;99.90
1379;DHT22;683;48.738;9.226;2023-05-10T05:56:32;12.90;99.90
1379;DHT22;683;48.738;9.226;2023-05-10T05:58:59;12.80;99.90
1379;DHT22;683;48.738;9.226;2023-05-10T06:01:27;12.80;99.90
1379;DHT22;683;48.738;9.226;2023-05-10T06:03:55;12.80;99.90
1379;DHT22;683;48.738;9.226;2023-05-10T06:06:22;12.90;99.90
1379;DHT22;683;48.738;9.226;2023-05-10T06:08:50;12.90;99.90
1379;DHT22;683;48.738;9.226;2023-05-10T06:11:18;12.90;99.90
1379;DHT22;683;48.738;9.226;2023-05-10T06:13:49;13.00;99.90
1379;DHT22;683;48.738;9.226;2023-05-10T06:16:17;13.00;99.90
1379;DHT22;683;48.738;9.226;2023-05-10T06:18:45;13.10;99.90
1379;DHT22;683;48.738;9.226;2023-05-10T06:21:12;13.10;99.90
1379;DHT22;683;48.738;9.226;2023-05-10T06:23:40;13.20;99.90
1379;DHT22;683;48.738;9.226;2023-05-10T06:26:08;13.20;99.90
1379;DHT22;683;48.738;9.226;2023-05-10T06:28:36;13.30;99.90
1379;DHT22;683;48.738;9.226;2023-05-10T06:31:05;13.30;99.90
1379;DHT22;683;48.738;9.226;2023-05-10T06:33:33;13.40;99.90
1379;DHT22;683;48.738;9.226;2023-05-10T06:36:01;13.40;99.90
1379;DHT22;683;48.738;9.226;2023-05-10T06:38:29;13.50;99.90
1379;DHT22;683;48.738;9.226;2023-05-10T06:40:56;13.50;99.90
1379;DHT22;683;48.738;9.226;2023-05-10T06:43:24;13.40;99.90
1379;DHT22;683;48.738;9.226;2023-05-10T06:45:52;13.40;99.90
1379;DHT22;683;48.738;9.226;2023-05-10T06:48:21;13.40;99.90
1379;DHT22;683;48.738;9.226;2023-05-10T06:50:49;13.40;99.90
1379;DHT22;683;48.738;9.226;2023-05-10T06:53:16;13.40;99.90
1379;DHT22;683;48.738;9.226;2023-05-10T06:55:44;13.40;99.90
1379;DHT22;683;48.738;9.226;2023-05-10T06:58:12;13.40;99.90
1379;DHT22;683;48.738;9.226;2023-05-10T07:00:40;13.40;99.90
1379;DHT22;683;48.738;9.226;2023-05-10T07:03:09;13.30;99.90
1379;DHT22;683;48.738;9.226;2023-05-10T07:05:38;13.40;99.90
1379;DHT22;683;48.738;9.226;2023-05-10T07:08:06;13.40;99.90
1379;DHT22;683;48.738;9.226;2023-05-10T07:10:34;13.50;99.90
1379;DHT22;683;48.738;9.226;2023-05-10T07:13:02;13.50;99.90
1379;DHT22;683;48.738;9.226;2023-05-10T07:15:30;13.60;99.90
1379;DHT22;683;48.738;9.226;2023-05-10T07:17:58;13.70;99.90
1379;DHT22;683;48.738;9.226;2023-05-10T07:20:25;13.80;99.90
1379;DHT22;683;48.738;9.226;2023-05-10T07:22:54;14.00;99.90
1379;DHT22;683;48.738;9.226;2023-05-10T07:25:22;14.20;99.90
1379;DHT22;683;48.738;9.226;2023-05-10T07:27:50;14.40;99.90
1379;DHT22;683;48.738;9.226;2023-05-10T07:30:18;14.50;99.90
1379;DHT22;683;48.738;9.226;2023-05-10T07:32:45;14.70;99.90
1379;DHT22;683;48.738;9.226;2023-05-10T07:35:13;14.90;99.90
1379;DHT22;683;48.738;9.226;2023-05-10T07:37:41;15.00;99.90
1379;DHT22;683;48.738;9.226;2023-05-10T07:40:10;15.00;99.90
1379;DHT22;683;48.738;9.226;2023-05-10T07:42:38;15.00;99.90
1379;DHT22;683;48.738;9.226;2023-05-10T07:45:07;15.00;99.90
1379;DHT22;683;48.738;9.226;2023-05-10T07:47:35;15.00;99.90
1379;DHT22;683;48.738;9.226;2023-05-10T07:50:04;15.00;99.90
1379;DHT22;683;48.738;9.226;2023-05-10T07:52:31;15.20;99.90
1379;DHT22;683;48.738;9.226;2023-05-10T07:54:59;15.10;99.90
1379;DHT22;683;48.738;9.226;2023-05-10T07:57:29;15.20;99.90
1379;DHT22;683;48.738;9.226;2023-05-10T07:59:56;15.30;99.90
1379;DHT22;683;48.738;9.226;2023-05-10T08:02:24;15.50;99.90
1379;DHT22;683;48.738;9.226;2023-05-10T08:04:52;15.40;99.90
1379;DHT22;683;48.738;9.226;2023-05-10T08:07:20;15.30;99.90
1379;DHT22;683;48.738;9.226;2023-05-10T08:09:48;15.20;99.90
1379;DHT22;683;48.738;9.226;2023-05-10T08:12:15;15.30;99.90
1379;DHT22;683;48.738;9.226;2023-05-10T08:14:44;15.20;99.90
1379;DHT22;683;48.738;9.226;2023-05-10T08:17:12;15.20;99.90
1379;DHT22;683;48.738;9.226;2023-05-10T08:19:40;15.20;99.90
1379;DHT22;683;48.738;9.226;2023-05-10T08:22:07;15.10;99.90
1379;DHT22;683;48.738;9.226;2023-05-10T08:24:35;15.00;99.90
1379;DHT22;683;48.738;9.226;2023-05-10T08:27:04;15.00;99.90
1379;DHT22;683;48.738;9.226;2023-05-10T08:29:32;15.00;99.90
1379;DHT22;683;48.738;9.226;2023-05-10T08:32:01;15.00;99.90
1379;DHT22;683;48.738;9.226;2023-05-10T08:34:29;15.00;99.90
1379;DHT22;683;48.738;9.226;2023-05-10T08:36:57;15.00;99.90
1379;DHT22;683;48.738;9.226;2023-05-10T08:39:25;15.00;99.90
1379;DHT22;683;48.738;9.226;2023-05-10T08:41:54;15.10;99.90
1379;DHT22;683;48.738;9.226;2023-05-10T08:44:25;15.40;99.90
1379;DHT22;683;48.738;9.226;2023-05-10T08:46:53;15.50;99.90
1379;DHT22;683;48.738;9.226;2023-05-10T08:49:24;15.50;99.90
1379;DHT22;683;48.738;9.226;2023-05-10T08:51:55;15.60;99.90
1379;DHT22;683;48.738;9.226;2023-05-10T08:54:24;15.70;99.90
1379;DHT22;683;48.738;9.226;2023-05-10T08:56:52;15.70;99.90
1379;DHT22;683;48.738;9.226;2023-05-10T08:59:20;15.80;99.90
1379;DHT22;683;48.738;9.226;2023-05-10T09:01:49;16.00;99.90
1379;DHT22;683;48.738;9.226;2023-05-10T09:04:17;16.20;99.90
1379;DHT22;683;48.738;9.226;2023-05-10T09:06:46;16.20;99.90
1379;DHT22;683;48.738;9.226;2023-05-10T09:09:14;16.20;99.90
1379;DHT22;683;48.738;9.226;2023-05-10T09:11:43;16.30;99.90
1379;DHT22;683;48.738;9.226;2023-05-10T09:14:12;16.30;99.90
1379;DHT22;683;48.738;9.226;2023-05-10T09:16:40;16.30;99.90
1379;DHT22;683;48.738;9.226;2023-05-10T09:19:08;16.30;99.90
1379;DHT22;683;48.738;9.226;2023-05-10T09:21:36;16.20;99.90
1379;DHT22;683;48.738;9.226;2023-05-10T09:24:08;16.10;99.90
1379;DHT22;683;48.738;9.226;2023-05-10T09:26:39;16.00;99.90
1379;DHT22;683;48.738;9.226;2023-05-10T09:29:12;16.00;99.90
1379;DHT22;683;48.738;9.226;2023-05-10T09:31:45;16.10;99.90
1379;DHT22;683;48.738;9.226;2023-05-10T09:34:17;16.00;99.90
1379;DHT22;683;48.738;9.226;2023-05-10T09:36:52;15.70;99.90
1379;DHT22;683;48.738;9.226;2023-05-10T09:39:30;15.50;99.90
1379;DHT22;683;48.738;9.226;2023-05-10T09:41:59;14.80;99.90
1379;DHT22;683;48.738;9.226;2023-05-10T09:44:27;14.30;99.90
1379;DHT22;683;48.738;9.226;2023-05-10T09:46:55;14.00;99.90
1379;DHT22;683;48.738;9.226;2023-05-10T09:49:23;13.80;99.90
1379;DHT22;683;48.738;9.226;2023-05-10T09:52:01;13.60;99.90
1379;DHT22;683;48.738;9.226;2023-05-10T09:54:31;13.60;99.90
1379;DHT22;683;48.738;9.226;2023-05-10T09:56:59;13.80;99.90
1379;DHT22;683;48.738;9.226;2023-05-10T09:59:27;14.00;99.90
1379;DHT22;683;48.738;9.226;2023-05-10T10:01:56;14.20;99.90
1379;DHT22;683;48.738;9.226;2023-05-10T10:04:25;14.50;99.90
1379;DHT22;683;48.738;9.226;2023-05-10T10:07:00;14.80;99.90
1379;DHT22;683;48.738;9.226;2023-05-10T10:09:30;15.20;99.90
1379;DHT22;683;48.738;9.226;2023-05-10T10:11:58;15.60;99.90
1379;DHT22;683;48.738;9.226;2023-05-10T10:14:26;16.00;99.90
1379;DHT22;683;48.738;9.226;2023-05-10T10:16:54;16.40;99.90
1379;DHT22;683;48.738;9.226;2023-05-10T10:19:22;16.80;99.90
1379;DHT22;683;48.738;9.226;2023-05-10T10:21:50;16.90;99.90
1379;DHT22;683;48.738;9.226;2023-05-10T10:24:18;17.00;99.90
1379;DHT22;683;48.738;9.226;2023-05-10T10:26:47;17.30;99.90
1379;DHT22;683;48.738;9.226;2023-05-10T10:29:23;17.40;99.90
1379;DHT22;683;48.738;9.226;2023-05-10T10:31:57;17.40;99.90
1379;DHT22;683;48.738;9.226;2023-05-10T10:34:31;17.30;99.90
1379;DHT22;683;48.738;9.226;2023-05-10T10:37:04;17.00;99.90
1379;DHT22;683;48.738;9.226;2023-05-10T10:39:32;16.80;99.90
1379;DHT22;683;48.738;9.226;2023-05-10T10:42:04;16.60;99.90
1379;DHT22;683;48.738;9.226;2023-05-10T10:44:36;16.50;99.90
1379;DHT22;683;48.738;9.226;2023-05-10T10:47:20;16.40;99.90
1379;DHT22;683;48.738;9.226;2023-05-10T10:49:52;16.40;99.90
1379;DHT22;683;48.738;9.226;2023-05-10T10:52:31;16.40;99.90
1379;DHT22;683;48.738;9.226;2023-05-10T10:55:02;16.50;99.90
1379;DHT22;683;48.738;9.226;2023-05-10T10:57:42;16.80;99.90
1379;DHT22;683;48.738;9.226;2023-05-10T11:00:21;17.10;99.90
1379;DHT22;683;48.738;9.226;2023-05-10T11:02:50;17.20;99.10
1379;DHT22;683;48.738;9.226;2023-05-10T11:05:40;17.30;99.10
1379;DHT22;683;48.738;9.226;2023-05-10T11:08:13;17.30;99.20
1379;DHT22;683;48.738;9.226;2023-05-10T11:11:03;17.00;99.10
1379;DHT22;683;48.738;9.226;2023-05-10T11:13:37;16.40;98.90
1379;DHT22;683;48.738;9.226;2023-05-10T11:16:14;16.00;99.20
1379;DHT22;683;48.738;9.226;2023-05-10T11:18:59;15.70;98.60
1379;DHT22;683;48.738;9.226;2023-05-10T11:21:28;15.70;99.40
1379;DHT22;683;48.738;9.226;2023-05-10T11:23:57;15.80;97.80
1379;DHT22;683;48.738;9.226;2023-05-10T11:26:30;15.70;98.30
1379;DHT22;683;48.738;9.226;2023-05-10T11:28:59;15.50;97.50
1379;DHT22;683;48.738;9.226;2023-05-10T11:31:28;15.20;98.60
1379;DHT22;683;48.738;9.226;2023-05-10T11:33:58;15.20;98.60
1379;DHT22;683;48.738;9.226;2023-05-10T11:36:28;15.10;96.80
1379;DHT22;683;48.738;9.226;2023-05-10T11:38:56;15.10;96.40
1379;DHT22;683;48.738;9.226;2023-05-10T11:41:25;15.00;96.30
1379;DHT22;683;48.738;9.226;2023-05-10T11:43:54;15.00;95.60
1379;DHT22;683;48.738;9.226;2023-05-10T11:46:25;15.10;95.60
1379;DHT22;683;48.738;9.226;2023-05-10T11:48:55;15.20;95.60
1379;DHT22;683;48.738;9.226;2023-05-10T11:51:25;15.30;96.80
1379;DHT22;683;48.738;9.226;2023-05-10T11:53:54;15.40;97.10
1379;DHT22;683;48.738;9.226;2023-05-10T11:56:22;15.20;99.90
1379;DHT22;683;48.738;9.226;2023-05-10T11:58:53;14.80;99.90
1379;DHT22;683;48.738;9.226;2023-05-10T12:01:23;14.30;99.90
1379;DHT22;683;48.738;9.226;2023-05-10T12:03:53;14.10;99.90
1379;DHT22;683;48.738;9.226;2023-05-10T12:06:26;14.00;99.90
1379;DHT22;683;48.738;9.226;2023-05-10T12:08:54;14.00;99.90
1379;DHT22;683;48.738;9.226;2023-05-10T12:11:24;13.90;99.90
1379;DHT22;683;48.738;9.226;2023-05-10T12:13:55;13.80;99.90
1379;DHT22;683;48.738;9.226;2023-05-10T12:16:25;13.90;99.90
1379;DHT22;683;48.738;9.226;2023-05-10T12:18:57;14.00;99.90
1379;DHT22;683;48.738;9.226;2023-05-10T12:21:26;14.10;99.90
1379;DHT22;683;48.738;9.226;2023-05-10T12:23:58;14.30;99.90
1379;DHT22;683;48.738;9.226;2023-05-10T12:26:26;14.60;99.90
1379;DHT22;683;48.738;9.226;2023-05-10T12:28:55;15.00;99.90
1379;DHT22;683;48.738;9.226;2023-05-10T12:31:51;15.30;99.90
1379;DHT22;683;48.738;9.226;2023-05-10T12:34:26;15.60;99.90
1379;DHT22;683;48.738;9.226;2023-05-10T12:36:54;15.80;99.90
1379;DHT22;683;48.738;9.226;2023-05-10T12:39:22;16.00;99.40
1379;DHT22;683;48.738;9.226;2023-05-10T12:41:49;16.00;99.50
1379;DHT22;683;48.738;9.226;2023-05-10T12:44:18;16.10;99.70
1379;DHT22;683;48.738;9.226;2023-05-10T12:46:46;16.20;99.90
1379;DHT22;683;48.738;9.226;2023-05-10T12:49:15;16.30;98.40
1379;DHT22;683;48.738;9.226;2023-05-10T12:51:44;16.20;97.80
1379;DHT22;683;48.738;9.226;2023-05-10T12:54:12;16.20;97.80
1379;DHT22;683;48.738;9.226;2023-05-10T12:56:40;16.20;97.80
1379;DHT22;683;48.738;9.226;2023-05-10T12:59:08;16.10;97.20
1379;DHT22;683;48.738;9.226;2023-05-10T13:01:36;15.90;97.70
1379;DHT22;683;48.738;9.226;2023-05-10T13:04:04;15.70;97.10
1379;DHT22;683;48.738;9.226;2023-05-10T13:06:35;15.60;97.70
1379;DHT22;683;48.738;9.226;2023-05-10T13:09:03;15.50;98.10
1379;DHT22;683;48.738;9.226;2023-05-10T13:11:31;15.40;98.20
1379;DHT22;683;48.738;9.226;2023-05-10T13:13:58;15.20;98.10
1379;DHT22;683;48.738;9.226;2023-05-10T13:16:26;15.20;98.60
1379;DHT22;683;48.738;9.226;2023-05-10T13:18:54;15.20;99.00
1379;DHT22;683;48.738;9.226;2023-05-10T13:21:21;15.40;99.30
1379;DHT22;683;48.738;9.226;2023-05-10T13:23:52;15.60;97.70
1379;DHT22;683;48.738;9.226;2023-05-10T13:26:20;16.00;96.40
1379;DHT22;683;48.738;9.226;2023-05-10T13:28:47;16.30;95.50
1379;DHT22;683;48.738;9.226;2023-05-10T13:31:17;16.50;94.50
1379;DHT22;683;48.738;9.226;2023-05-10T13:33:45;16.70;95.50
1379;DHT22;683;48.738;9.226;2023-05-10T13:36:15;16.90;95.90
1379;DHT22;683;48.738;9.226;2023-05-10T13:38:43;17.10;95.20
1379;DHT22;683;48.738;9.226;2023-05-10T13:41:12;17.30;95.20
1379;DHT22;683;48.738;9.226;2023-05-10T13:43:40;17.50;94.40
1379;DHT22;683;48.738;9.226;2023-05-10T13:46:08;17.70;94.20
1379;DHT22;683;48.738;9.226;2023-05-10T13:48:35;17.80;94.30
1379;DHT22;683;48.738;9.226;2023-05-10T13:51:04;17.90;92.50
1379;DHT22;683;48.738;9.226;2023-05-10T13:53:31;17.80;91.80
1379;DHT22;683;48.738;9.226;2023-05-10T13:55:59;17.80;92.60
1379;DHT22;683;48.738;9.226;2023-05-10T13:58:29;17.80;92.60
1379;DHT22;683;48.738;9.226;2023-05-10T14:00:57;17.90;90.70
1379;DHT22;683;48.738;9.226;2023-05-10T14:03:25;18.10;90.40
1379;DHT22;683;48.738;9.226;2023-05-10T14:05:52;18.10;89.20
1379;DHT22;683;48.738;9.226;2023-05-10T14:08:20;18.10;87.00
1379;DHT22;683;48.738;9.226;2023-05-10T14:10:48;18.00;87.40
1379;DHT22;683;48.738;9.226;2023-05-10T14:13:16;18.00;86.40
1379;DHT22;683;48.738;9.226;2023-05-10T14:15:46;18.00;87.20
1379;DHT22;683;48.738;9.226;2023-05-10T14:18:13;18.10;88.20
1379;DHT22;683;48.738;9.226;2023-05-10T14:20:41;18.10;89.70
1379;DHT22;683;48.738;9.226;2023-05-10T14:23:09;18.10;87.10
1379;DHT22;683;48.738;9.226;2023-05-10T14:25:36;18.00;84.80
1379;DHT22;683;48.738;9.226;2023-05-10T14:28:05;17.90;86.60
1379;DHT22;683;48.738;9.226;2023-05-10T14:30:33;17.90;88.90
1379;DHT22;683;48.738;9.226;2023-05-10T14:33:02;18.00;86.90
1379;DHT22;683;48.738;9.226;2023-05-10T14:35:30;18.10;87.10
1379;DHT22;683;48.738;9.226;2023-05-10T14:37:58;18.20;86.80
1379;DHT22;683;48.738;9.226;2023-05-10T14:40:26;18.20;88.40
1379;DHT22;683;48.738;9.226;2023-05-10T14:42:53;18.20;86.90
1379;DHT22;683;48.738;9.226;2023-05-10T14:45:21;18.00;83.10
1379;DHT22;683;48.738;9.226;2023-05-10T14:47:49;18.00;85.20
1379;DHT22;683;48.738;9.226;2023-05-10T14:50:18;18.00;85.10
1379;DHT22;683;48.738;9.226;2023-05-10T14:52:46;17.90;84.40
1379;DHT22;683;48.738;9.226;2023-05-10T14:55:15;17.80;83.50
1379;DHT22;683;48.738;9.226;2023-05-10T14:57:44;17.80;85.10
1379;DHT22;683;48.738;9.226;2023-05-10T15:00:14;17.70;85.30
1379;DHT22;683;48.738;9.226;2023-05-10T15:02:43;17.70;82.80
1379;DHT22;683;48.738;9.226;2023-05-10T15:05:10;17.60;85.70
1379;DHT22;683;48.738;9.226;2023-05-10T15:07:39;17.60;86.00
1379;DHT22;683;48.738;9.226;2023-05-10T15:10:09;17.60;86.20
1379;DHT22;683;48.738;9.226;2023-05-10T15:12:38;17.60;84.90
1379;DHT22;683;48.738;9.226;2023-05-10T15:15:06;17.60;84.80
1379;DHT22;683;48.738;9.226;2023-05-10T15:17:34;17.60;82.80
1379;DHT22;683;48.738;9.226;2023-05-10T15:20:02;17.60;81.90
1379;DHT22;683;48.738;9.226;2023-05-10T15:22:30;17.60;84.10
1379;DHT22;683;48.738;9.226;2023-05-10T15:25:00;17.70;82.00
1379;DHT22;683;48.738;9.226;2023-05-10T15:27:28;17.70;82.30
1379;DHT22;683;48.738;9.226;2023-05-10T15:29:56;17.70;81.20
1379;DHT22;683;48.738;9.226;2023-05-10T15:32:25;17.70;81.30
1379;DHT22;683;48.738;9.226;2023-05-10T15:34:53;17.80;81.70
1379;DHT22;683;48.738;9.226;2023-05-10T15:37:20;17.80;80.10
1379;DHT22;683;48.738;9.226;2023-05-10T15:39:49;17.90;81.50
1379;DHT22;683;48.738;9.226;2023-05-10T15:42:18;18.10;81.10
1379;DHT22;683;48.738;9.226;2023-05-10T15:44:46;18.10;82.80
1379;DHT22;683;48.738;9.226;2023-05-10T15:47:16;18.20;81.10
1379;DHT22;683;48.738;9.226;2023-05-10T15:49:44;18.20;80.70
1379;DHT22;683;48.738;9.226;2023-05-10T15:52:11;18.20;80.70
1379;DHT22;683;48.738;9.226;2023-05-10T15:54:39;18.30;81.70
1379;DHT22;683;48.738;9.226;2023-05-10T15:57:07;18.40;81.30
1379;DHT22;683;48.738;9.226;2023-05-10T15:59:36;18.40;79.90
1379;DHT22;683;48.738;9.226;2023-05-10T16:02:03;18.20;79.40
1379;DHT22;683;48.738;9.226;2023-05-10T16:04:32;18.20;79.40
1379;DHT22;683;48.738;9.226;2023-05-10T16:07:00;18.10;78.40
1379;DHT22;683;48.738;9.226;2023-05-10T16:09:27;18.00;79.50
1379;DHT22;683;48.738;9.226;2023-05-10T16:11:55;17.90;78.60
1379;DHT22;683;48.738;9.226;2023-05-10T16:14:23;17.80;79.80
1379;DHT22;683;48.738;9.226;2023-05-10T16:16:52;17.60;79.50
1379;DHT22;683;48.738;9.226;2023-05-10T16:19:20;17.50;79.60
1379;DHT22;683;48.738;9.226;2023-05-10T16:21:48;17.40;80.50
1379;DHT22;683;48.738;9.226;2023-05-10T16:24:19;17.30;80.40
1379;DHT22;683;48.738;9.226;2023-05-10T16:26:47;17.20;81.90
1379;DHT22;683;48.738;9.226;2023-05-10T16:29:14;17.10;80.60
1379;DHT22;683;48.738;9.226;2023-05-10T16:31:42;17.10;80.30